createdAt,value
2018-03-30T00:00:48.884Z,7.50
2018-03-30T00:03:16.971Z,7.50
2018-03-30T00:05:45.255Z,7.50
2018-03-30T00:08:12.799Z,7.50
2018-03-30T00:10:47.685Z,7.50
2018-03-30T00:13:15.213Z,7.50
2018-03-30T00:15:42.732Z,7.50
2018-03-30T00:18:10.259Z,7.50
2018-03-30T00:20:37.771Z,7.50
2018-03-30T00:23:06.048Z,7.50
2018-03-30T00:25:33.604Z,7.50
2018-03-30T00:28:01.880Z,7.40
2018-03-30T00:30:29.407Z,7.40
2018-03-30T00:32:56.923Z,7.50
2018-03-30T00:35:24.455Z,7.50
2018-03-30T00:37:51.969Z,7.50
2018-03-30T00:40:19.480Z,7.50
2018-03-30T00:42:46.994Z,7.50
2018-03-30T00:45:14.519Z,7.40
2018-03-30T00:47:42.784Z,7.40
2018-03-30T00:50:10.301Z,7.40
2018-03-30T00:52:37.872Z,7.40
2018-03-30T00:55:05.373Z,7.40
2018-03-30T00:57:32.899Z,7.40
2018-03-30T01:00:00.416Z,7.40
2018-03-30T01:02:27.969Z,7.30
2018-03-30T01:04:55.511Z,7.30
2018-03-30T01:07:23.023Z,7.30
2018-03-30T01:09:50.545Z,7.20
2018-03-30T01:12:18.060Z,7.20
2018-03-30T01:14:45.577Z,7.20
2018-03-30T01:17:13.099Z,7.20
2018-03-30T01:19:41.380Z,7.10
2018-03-30T01:22:09.652Z,7.10
2018-03-30T01:24:37.159Z,7.10
2018-03-30T01:27:04.675Z,7.20
2018-03-30T01:29:32.958Z,7.20
2018-03-30T01:32:00.464Z,7.20
2018-03-30T01:34:27.973Z,7.10
2018-03-30T01:36:56.248Z,7.20
2018-03-30T01:39:23.759Z,7.20
2018-03-30T01:41:51.271Z,7.10
2018-03-30T01:44:19.571Z,7.10
2018-03-30T01:46:47.088Z,7.10
2018-03-30T01:49:14.587Z,7.20
2018-03-30T01:51:42.868Z,7.20
2018-03-30T01:54:10.383Z,7.10
2018-03-30T01:56:37.904Z,7.10
2018-03-30T01:59:05.445Z,7.10
2018-03-30T02:01:33.863Z,7.10
2018-03-30T02:04:01.372Z,7.10
2018-03-30T02:06:28.884Z,7.10
2018-03-30T02:08:56.410Z,7.00
2018-03-30T02:11:24.698Z,7.00
2018-03-30T02:13:52.212Z,7.00
2018-03-30T02:16:19.725Z,6.90
2018-03-30T02:18:47.233Z,6.80
2018-03-30T02:21:14.763Z,6.80
2018-03-30T02:23:43.048Z,6.80
2018-03-30T02:26:10.560Z,6.80
2018-03-30T02:28:38.990Z,6.80
2018-03-30T02:31:06.490Z,6.80
2018-03-30T02:33:33.996Z,6.70
2018-03-30T02:36:01.519Z,6.70
2018-03-30T02:38:29.848Z,6.60
2018-03-30T02:40:57.376Z,6.60
2018-03-30T02:43:24.876Z,6.60
2018-03-30T02:45:52.402Z,6.60
2018-03-30T02:48:19.923Z,6.60
2018-03-30T02:50:47.440Z,6.60
2018-03-30T02:53:14.949Z,6.60
2018-03-30T02:55:43.225Z,6.60
2018-03-30T02:58:10.744Z,6.60
2018-03-30T03:00:38.281Z,6.60
2018-03-30T03:03:05.824Z,6.50
2018-03-30T03:05:33.364Z,6.40
2018-03-30T03:08:01.605Z,6.40
2018-03-30T03:10:29.192Z,6.40
2018-03-30T03:12:56.704Z,6.50
2018-03-30T03:15:24.230Z,6.50
2018-03-30T03:17:52.505Z,6.40
2018-03-30T03:20:20.030Z,6.40
2018-03-30T03:22:47.538Z,6.40
2018-03-30T03:25:15.116Z,6.40
2018-03-30T03:27:42.637Z,6.40
2018-03-30T03:30:10.178Z,6.40
2018-03-30T03:32:37.774Z,6.40
2018-03-30T03:35:06.113Z,6.40
2018-03-30T03:37:34.075Z,6.40
2018-03-30T03:40:01.647Z,6.40
2018-03-30T03:42:29.192Z,6.40
2018-03-30T03:44:56.702Z,6.30
2018-03-30T03:47:24.233Z,6.40
2018-03-30T03:49:51.735Z,6.40
2018-03-30T03:52:20.011Z,6.50
2018-03-30T03:54:47.528Z,6.40
2018-03-30T03:57:15.044Z,6.40
2018-03-30T03:59:42.591Z,6.40
2018-03-30T04:02:10.112Z,6.50
2018-03-30T04:04:37.615Z,6.50
2018-03-30T04:07:05.203Z,6.40
2018-03-30T04:09:32.735Z,6.40
2018-03-30T04:12:00.301Z,6.30
2018-03-30T04:14:27.815Z,6.30
2018-03-30T04:16:55.340Z,6.30
2018-03-30T04:19:22.913Z,6.30
2018-03-30T04:21:50.419Z,6.30
2018-03-30T04:24:18.744Z,6.30
2018-03-30T04:26:46.260Z,6.20
2018-03-30T04:29:14.542Z,6.20
2018-03-30T04:31:42.068Z,6.20
2018-03-30T04:34:10.378Z,6.10
2018-03-30T04:36:37.897Z,6.10
2018-03-30T04:39:05.408Z,6.10
2018-03-30T04:41:32.926Z,6.10
2018-03-30T04:44:00.444Z,6.10
2018-03-30T04:46:27.952Z,6.00
2018-03-30T04:48:55.478Z,6.00
2018-03-30T04:51:23.015Z,6.00
2018-03-30T04:53:50.526Z,6.00
2018-03-30T04:56:18.055Z,6.10
2018-03-30T04:58:45.570Z,6.10
2018-03-30T05:01:13.075Z,6.10
2018-03-30T05:03:40.668Z,6.10
2018-03-30T05:06:08.191Z,6.10
2018-03-30T05:08:35.719Z,6.00
2018-03-30T05:11:03.231Z,6.00
2018-03-30T05:13:30.747Z,6.00
2018-03-30T05:15:58.257Z,6.00
2018-03-30T05:18:25.778Z,6.00
2018-03-30T05:20:53.291Z,5.90
2018-03-30T05:23:20.809Z,5.90
2018-03-30T05:25:48.359Z,5.90
2018-03-30T05:28:15.869Z,5.80
2018-03-30T05:30:43.391Z,5.80
2018-03-30T05:33:10.896Z,5.80
2018-03-30T05:35:38.438Z,5.80
2018-03-30T05:38:05.968Z,5.80
2018-03-30T05:40:34.307Z,5.80
2018-03-30T05:43:01.824Z,5.80
2018-03-30T05:45:29.332Z,5.80
2018-03-30T05:47:57.611Z,5.80
2018-03-30T05:50:25.157Z,5.80
2018-03-30T05:52:52.743Z,5.80
2018-03-30T05:55:21.023Z,5.80
2018-03-30T05:57:48.551Z,5.80
2018-03-30T06:00:16.063Z,5.80
2018-03-30T06:02:43.635Z,5.80
2018-03-30T06:05:11.256Z,5.80
2018-03-30T06:07:38.763Z,5.80
2018-03-30T06:10:06.296Z,5.80
2018-03-30T06:12:34.415Z,5.90
2018-03-30T06:15:02.057Z,5.90
2018-03-30T06:17:29.571Z,6.00
2018-03-30T06:19:57.079Z,6.10
2018-03-30T06:22:24.583Z,6.20
2018-03-30T06:24:52.195Z,6.30
2018-03-30T06:27:19.717Z,6.40
2018-03-30T06:29:47.239Z,6.50
2018-03-30T06:32:14.747Z,6.50
2018-03-30T06:34:43.028Z,6.50
2018-03-30T06:37:10.671Z,6.50
2018-03-30T06:39:38.952Z,6.50
2018-03-30T06:42:07.232Z,6.70
2018-03-30T06:44:34.750Z,6.80
2018-03-30T06:47:02.313Z,6.90
2018-03-30T06:49:29.895Z,7.00
2018-03-30T06:51:57.407Z,7.20
2018-03-30T06:54:24.940Z,7.40
2018-03-30T06:56:53.280Z,7.80
2018-03-30T06:59:20.840Z,7.80
2018-03-30T07:01:48.353Z,8.10
2018-03-30T07:04:15.895Z,8.20
2018-03-30T07:06:43.421Z,8.20
2018-03-30T07:09:11.010Z,8.60
2018-03-30T07:11:38.508Z,8.70
2018-03-30T07:14:06.719Z,8.90
2018-03-30T07:16:35.577Z,8.80
2018-03-30T07:19:03.103Z,8.80
2018-03-30T07:21:30.621Z,8.90
2018-03-30T07:23:58.164Z,8.80
2018-03-30T07:26:25.679Z,8.50
2018-03-30T07:28:53.224Z,8.30
2018-03-30T07:31:20.748Z,8.30
2018-03-30T07:33:48.259Z,8.20
2018-03-30T07:36:16.539Z,8.30
2018-03-30T07:38:44.063Z,8.30
2018-03-30T07:41:11.575Z,8.30
2018-03-30T07:43:39.855Z,8.60
2018-03-30T07:46:07.359Z,8.60
2018-03-30T07:48:34.935Z,9.30
2018-03-30T07:51:02.441Z,9.40
2018-03-30T07:53:29.944Z,9.60
2018-03-30T07:55:57.471Z,9.80
2018-03-30T07:58:24.999Z,9.90
2018-03-30T08:00:53.272Z,9.80
2018-03-30T08:03:20.779Z,9.80
2018-03-30T08:05:48.293Z,9.90
2018-03-30T08:08:16.577Z,9.90
2018-03-30T08:10:44.187Z,9.80
2018-03-30T08:13:11.703Z,10.40
2018-03-30T08:15:40.039Z,10.50
2018-03-30T08:18:07.566Z,10.50
2018-03-30T08:20:35.105Z,10.40
2018-03-30T08:23:03.579Z,10.80
2018-03-30T08:25:31.864Z,10.90
2018-03-30T08:27:59.379Z,10.90
2018-03-30T08:30:26.895Z,10.70
2018-03-30T08:32:54.447Z,10.60
2018-03-30T08:35:22.796Z,10.50
2018-03-30T08:37:50.352Z,10.50
2018-03-30T08:40:17.874Z,10.60
2018-03-30T08:42:45.400Z,10.80
2018-03-30T08:45:13.708Z,10.70
2018-03-30T08:47:41.231Z,10.60
2018-03-30T08:50:08.744Z,10.70
2018-03-30T08:52:36.259Z,11.10
2018-03-30T08:55:03.802Z,11.20
2018-03-30T08:57:31.352Z,11.00
2018-03-30T08:59:58.883Z,10.70
2018-03-30T09:02:26.399Z,10.50
2018-03-30T09:04:53.939Z,10.20
2018-03-30T09:07:21.541Z,10.20
2018-03-30T09:09:49.079Z,10.40
2018-03-30T09:12:16.606Z,10.70
2018-03-30T09:14:44.249Z,10.60
2018-03-30T09:17:11.768Z,10.60
2018-03-30T09:19:39.304Z,10.50
2018-03-30T09:22:06.826Z,10.60
2018-03-30T09:24:34.347Z,10.70
2018-03-30T09:27:02.669Z,10.70
2018-03-30T09:29:30.179Z,10.60
2018-03-30T09:31:58.460Z,10.70
2018-03-30T09:34:25.987Z,10.70
2018-03-30T09:36:53.518Z,10.80
2018-03-30T09:39:21.052Z,11.10
2018-03-30T09:41:48.584Z,11.10
2018-03-30T09:44:16.099Z,11.50
2018-03-30T09:46:43.653Z,11.90
2018-03-30T09:49:11.164Z,12.60
2018-03-30T09:51:38.727Z,12.90
2018-03-30T09:54:06.259Z,12.30
2018-03-30T10:01:51.244Z,11.60
2018-03-30T10:04:23.779Z,11.40
2018-03-30T10:06:51.280Z,11.60
2018-03-30T10:09:18.824Z,11.50
2018-03-30T10:11:46.344Z,11.60
2018-03-30T10:14:14.463Z,11.60
2018-03-30T10:16:41.980Z,11.70
2018-03-30T10:19:09.483Z,11.90
2018-03-30T10:21:37.021Z,11.90
2018-03-30T10:24:04.579Z,12.20
2018-03-30T10:26:32.098Z,12.40
2018-03-30T10:28:59.606Z,12.70
2018-03-30T10:31:28.325Z,12.80
2018-03-30T10:33:55.936Z,12.80
2018-03-30T10:36:23.545Z,13.20
2018-03-30T10:38:51.082Z,13.70
2018-03-30T10:41:18.737Z,14.30
2018-03-30T10:43:47.095Z,14.80
2018-03-30T10:46:14.616Z,14.80
2018-03-30T10:48:42.178Z,15.00
2018-03-30T10:51:09.712Z,15.30
2018-03-30T10:53:37.232Z,15.40
2018-03-30T10:56:04.753Z,15.30
2018-03-30T10:58:32.263Z,15.20
2018-03-30T11:00:59.967Z,15.50
2018-03-30T11:03:27.507Z,15.60
2018-03-30T11:05:55.039Z,15.30
2018-03-30T11:11:53.141Z,15.80
2018-03-30T11:14:21.455Z,16.30
2018-03-30T11:16:49.144Z,16.30
2018-03-30T11:19:16.616Z,15.90
2018-03-30T11:21:44.179Z,15.50
2018-03-30T11:24:11.736Z,15.50
2018-03-30T11:26:39.291Z,15.50
2018-03-30T11:29:06.832Z,15.60
2018-03-30T11:31:35.264Z,15.80
2018-03-30T11:34:02.816Z,15.80
2018-03-30T11:36:30.360Z,15.80
2018-03-30T11:38:57.898Z,15.70
2018-03-30T11:41:25.438Z,15.40
2018-03-30T11:43:52.994Z,15.40
2018-03-30T11:46:20.529Z,15.90
2018-03-30T11:48:48.092Z,16.00
2018-03-30T11:51:15.740Z,15.80
2018-03-30T11:53:43.303Z,15.70
2018-03-30T11:56:10.889Z,15.70
2018-03-30T11:58:38.428Z,16.60
2018-03-30T12:01:06.766Z,16.30
2018-03-30T12:03:34.388Z,16.30
2018-03-30T12:06:02.727Z,16.00
2018-03-30T12:08:30.357Z,16.00
2018-03-30T12:10:57.991Z,16.00
2018-03-30T12:13:25.515Z,16.50
2018-03-30T12:15:53.064Z,16.70
2018-03-30T12:18:20.614Z,16.80
2018-03-30T12:20:48.174Z,16.50
2018-03-30T12:23:15.702Z,16.40
2018-03-30T12:25:43.263Z,16.30
2018-03-30T12:28:10.819Z,16.60
2018-03-30T12:30:38.356Z,16.20
2018-03-30T12:33:06.743Z,16.10
2018-03-30T12:35:34.342Z,16.00
2018-03-30T12:38:01.868Z,16.00
2018-03-30T12:40:29.428Z,16.60
2018-03-30T12:42:56.991Z,16.60
2018-03-30T12:45:24.593Z,16.30
2018-03-30T12:47:52.180Z,16.10
2018-03-30T12:50:19.716Z,16.00
2018-03-30T12:52:47.252Z,15.80
2018-03-30T12:55:14.810Z,16.00
2018-03-30T12:57:42.333Z,16.30
2018-03-30T13:00:09.890Z,16.20
2018-03-30T13:02:37.408Z,16.10
2018-03-30T13:05:04.972Z,16.20
2018-03-30T13:07:32.533Z,16.00
2018-03-30T13:10:00.068Z,15.70
2018-03-30T13:12:27.635Z,15.60
2018-03-30T13:14:55.275Z,15.70
2018-03-30T13:17:22.824Z,15.90
2018-03-30T13:19:50.375Z,16.10
2018-03-30T13:22:17.898Z,15.90
2018-03-30T13:24:45.422Z,15.90
2018-03-30T13:27:13.001Z,15.80
2018-03-30T13:29:40.527Z,16.20
2018-03-30T13:32:08.080Z,15.90
2018-03-30T13:34:35.762Z,15.80
2018-03-30T13:37:03.263Z,15.70
2018-03-30T13:39:30.787Z,15.70
2018-03-30T13:41:59.647Z,15.90
2018-03-30T13:44:27.204Z,15.70
2018-03-30T13:46:54.747Z,15.50
2018-03-30T13:49:22.263Z,15.70
2018-03-30T13:51:53.612Z,16.00
2018-03-30T13:54:25.675Z,15.70
2018-03-30T13:56:56.936Z,15.30
2018-03-30T13:59:26.943Z,15.30
2018-03-30T14:02:01.562Z,15.40
2018-03-30T14:04:41.033Z,15.40
2018-03-30T14:07:15.498Z,15.40
2018-03-30T14:09:43.087Z,15.50
2018-03-30T14:12:12.618Z,15.60
2018-03-30T14:14:40.166Z,15.50
2018-03-30T14:20:21.081Z,15.60
2018-03-30T14:23:03.240Z,15.50
2018-03-30T14:28:30.039Z,15.10
2018-03-30T14:31:06.919Z,15.00
2018-03-30T14:33:34.616Z,15.00
2018-03-30T14:36:08.855Z,15.10
2018-03-30T14:38:39.308Z,15.20
2018-03-30T14:41:07.676Z,15.00
2018-03-30T14:43:36.844Z,14.80
2018-03-30T14:46:05.742Z,14.80
2018-03-30T14:48:34.201Z,14.90
2018-03-30T14:51:09.678Z,14.90
2018-03-30T14:53:55.669Z,14.90
2018-03-30T14:56:27.868Z,14.90
2018-03-30T14:58:58.961Z,14.60
2018-03-30T15:01:33.463Z,14.60
2018-03-30T15:04:05.203Z,14.50
2018-03-30T15:07:04.256Z,14.50
2018-03-30T15:09:46.470Z,14.40
2018-03-30T15:12:32.731Z,14.40
2018-03-30T15:15:01.067Z,14.50
2018-03-30T15:17:32.522Z,14.40
2018-03-30T15:20:00.822Z,14.30
2018-03-30T15:22:44.658Z,14.20
2018-03-30T15:28:12.306Z,14.30
2018-03-30T15:30:46.610Z,14.20
2018-03-30T15:33:27.639Z,14.20
2018-03-30T15:35:55.422Z,14.10
2018-03-30T15:38:23.788Z,14.20
2018-03-30T15:40:51.307Z,14.20
2018-03-30T15:43:19.811Z,14.10
2018-03-30T15:45:49.227Z,14.10
2018-03-30T15:48:16.744Z,14.00
2018-03-30T15:50:44.858Z,14.00
2018-03-30T15:53:17.839Z,14.00
2018-03-30T15:55:46.251Z,13.90
2018-03-30T15:58:13.772Z,13.90
2018-03-30T16:00:41.417Z,13.80
2018-03-30T16:03:09.066Z,13.80
2018-03-30T16:05:36.752Z,13.80
2018-03-30T16:08:04.420Z,13.70
2018-03-30T16:10:35.779Z,13.70
2018-03-30T16:13:03.343Z,13.70
2018-03-30T16:15:30.884Z,13.60
2018-03-30T16:17:58.475Z,13.60
2018-03-30T16:20:25.622Z,13.50
2018-03-30T16:22:52.740Z,13.50
2018-03-30T16:25:19.777Z,13.40
2018-03-30T16:27:46.802Z,13.40
2018-03-30T16:30:15.548Z,13.30
2018-03-30T16:32:42.612Z,13.30
2018-03-30T16:35:09.711Z,13.30
2018-03-30T16:37:36.776Z,13.30
2018-03-30T16:40:04.182Z,13.30
2018-03-30T16:42:31.214Z,13.20
2018-03-30T16:44:58.256Z,13.10
2018-03-30T16:47:25.300Z,13.20
2018-03-30T16:49:52.328Z,13.10
2018-03-30T16:52:19.394Z,13.20
2018-03-30T16:54:46.571Z,13.10
2018-03-30T16:57:13.626Z,13.00
2018-03-30T16:59:41.152Z,13.00
2018-03-30T17:02:08.192Z,13.00
2018-03-30T17:04:35.229Z,12.90
2018-03-30T17:07:03.038Z,12.90
2018-03-30T17:09:30.088Z,12.90
2018-03-30T17:11:57.172Z,12.90
2018-03-30T17:14:24.792Z,12.80
2018-03-30T17:16:51.848Z,12.70
2018-03-30T17:19:19.349Z,12.70
2018-03-30T17:21:46.529Z,12.80
2018-03-30T17:24:13.596Z,12.80
2018-03-30T17:26:41.447Z,12.70
2018-03-30T17:29:08.511Z,12.70
2018-03-30T17:31:35.568Z,12.70
2018-03-30T17:34:02.620Z,12.60
2018-03-30T17:36:29.661Z,12.60
2018-03-30T17:38:56.698Z,12.50
2018-03-30T17:41:23.747Z,12.50
2018-03-30T17:43:50.788Z,12.50
2018-03-30T17:46:17.824Z,12.50
2018-03-30T17:48:44.957Z,12.50
2018-03-30T17:51:12.056Z,12.50
2018-03-30T17:53:39.090Z,12.40
2018-03-30T17:56:06.124Z,12.40
2018-03-30T17:58:33.167Z,12.40
2018-03-30T18:01:00.274Z,12.30
2018-03-30T18:03:27.356Z,12.30
2018-03-30T18:05:54.493Z,12.20
2018-03-30T18:08:21.549Z,12.20
2018-03-30T18:10:48.604Z,12.10
2018-03-30T18:13:16.398Z,12.00
2018-03-30T18:15:43.493Z,12.00
2018-03-30T18:18:10.536Z,12.00
2018-03-30T18:20:37.648Z,12.00
2018-03-30T18:23:04.696Z,11.90
2018-03-30T18:25:31.869Z,11.80
2018-03-30T18:27:59.257Z,11.80
2018-03-30T18:30:27.110Z,11.70
2018-03-30T18:32:54.162Z,11.70
2018-03-30T18:35:21.209Z,11.60
2018-03-30T18:37:48.249Z,11.40
2018-03-30T18:40:15.288Z,11.40
2018-03-30T18:42:42.341Z,11.30
2018-03-30T18:45:09.396Z,11.10
2018-03-30T18:47:36.435Z,10.90
2018-03-30T18:50:03.461Z,10.80
2018-03-30T18:52:30.480Z,10.50
2018-03-30T18:54:58.283Z,10.20
2018-03-30T18:57:25.396Z,10.20
2018-03-30T18:59:52.474Z,10.10
2018-03-30T19:02:19.582Z,10.00
2018-03-30T19:04:46.638Z,9.90
2018-03-30T19:07:13.671Z,9.90
2018-03-30T19:09:40.744Z,9.90
2018-03-30T19:12:07.872Z,9.80
2018-03-30T19:14:35.093Z,9.90
2018-03-30T19:17:02.433Z,9.80
2018-03-30T19:19:29.458Z,9.80
2018-03-30T19:21:56.652Z,9.60
2018-03-30T19:24:24.852Z,9.60
2018-03-30T19:26:51.871Z,9.50
2018-03-30T19:29:18.913Z,9.50
2018-03-30T19:31:45.989Z,9.50
2018-03-30T19:34:13.029Z,9.30
2018-03-30T19:36:40.096Z,9.20
2018-03-30T19:39:07.144Z,9.10
2018-03-30T19:41:34.188Z,9.20
2018-03-30T19:44:01.228Z,9.10
2018-03-30T19:46:28.284Z,9.00
2018-03-30T19:48:55.307Z,9.00
2018-03-30T19:51:22.437Z,9.10
2018-03-30T19:53:49.469Z,9.00
2018-03-30T19:56:16.524Z,9.00
2018-03-30T19:58:43.553Z,8.90
2018-03-30T20:01:10.684Z,8.90
2018-03-30T20:03:37.768Z,8.80
2018-03-30T20:06:04.805Z,8.70
2018-03-30T20:08:31.839Z,8.70
2018-03-30T20:10:58.907Z,8.60
2018-03-30T20:13:25.952Z,8.60
2018-03-30T20:15:53.080Z,8.50
2018-03-30T20:18:20.147Z,8.50
2018-03-30T20:20:48.012Z,8.60
2018-03-30T20:23:15.038Z,8.60
2018-03-30T20:25:42.070Z,8.60
2018-03-30T20:28:09.181Z,8.60
2018-03-30T20:30:36.982Z,8.80
2018-03-30T20:33:04.007Z,8.80
2018-03-30T20:35:31.047Z,9.00
2018-03-30T20:37:58.100Z,9.10
2018-03-30T20:40:25.142Z,9.10
2018-03-30T20:42:52.997Z,9.10
2018-03-30T20:45:20.812Z,9.00
2018-03-30T20:47:47.857Z,9.00
2018-03-30T20:50:14.879Z,9.00
2018-03-30T20:52:41.911Z,9.10
2018-03-30T20:55:09.710Z,9.00
2018-03-30T20:57:36.775Z,9.00
2018-03-30T21:00:03.819Z,8.90
2018-03-30T21:02:30.908Z,8.70
2018-03-30T21:04:57.933Z,8.60
2018-03-30T21:07:24.961Z,8.50
2018-03-30T21:09:51.980Z,8.50
2018-03-30T21:12:19.476Z,8.50
2018-03-30T21:14:46.554Z,8.50
2018-03-30T21:17:13.596Z,8.50
2018-03-30T21:19:40.618Z,8.60
2018-03-30T21:22:07.636Z,8.60
2018-03-30T21:24:35.452Z,8.50
2018-03-30T21:27:02.482Z,8.50
2018-03-30T21:29:29.522Z,8.50
2018-03-30T21:31:56.571Z,8.50
2018-03-30T21:34:23.638Z,8.40
2018-03-30T21:36:50.654Z,8.30
2018-03-30T21:39:18.549Z,8.50
2018-03-30T21:41:45.530Z,8.40
2018-03-30T21:44:12.558Z,8.40
2018-03-30T21:46:39.589Z,8.40
2018-03-30T21:49:06.620Z,8.30
2018-03-30T21:51:34.415Z,8.20
2018-03-30T21:54:01.461Z,8.20
2018-03-30T21:56:28.499Z,8.20
2018-03-30T21:58:55.520Z,8.10
2018-03-30T22:01:23.360Z,8.00
2018-03-30T22:03:50.414Z,8.00
2018-03-30T22:06:17.456Z,8.00
2018-03-30T22:08:44.491Z,7.90
2018-03-30T22:11:11.519Z,7.90
2018-03-30T22:13:38.539Z,7.90
2018-03-30T22:16:05.595Z,7.90
2018-03-30T22:18:32.666Z,7.90
2018-03-30T22:20:59.953Z,7.80
2018-03-30T22:23:26.995Z,7.80
2018-03-30T22:25:54.015Z,7.80
2018-03-30T22:28:21.058Z,7.80
2018-03-30T22:30:48.088Z,7.70
2018-03-30T22:33:15.182Z,7.80
2018-03-30T22:35:42.202Z,7.80
2018-03-30T22:38:09.232Z,7.80
2018-03-30T22:40:36.273Z,7.70
2018-03-30T22:43:03.354Z,7.60
2018-03-30T22:45:31.024Z,7.60
2018-03-30T22:47:58.078Z,7.60
2018-03-30T22:50:25.099Z,7.60
2018-03-30T22:52:52.881Z,7.50
2018-03-30T22:55:19.913Z,7.50
2018-03-30T22:57:47.050Z,7.40
2018-03-30T23:00:14.110Z,7.40
2018-03-30T23:02:41.149Z,7.40
2018-03-30T23:05:08.215Z,7.30
2018-03-30T23:07:35.305Z,7.20
2018-03-30T23:10:03.852Z,7.10
2018-03-30T23:12:30.938Z,7.10
2018-03-30T23:14:57.986Z,7.20
2018-03-30T23:17:25.269Z,7.10
2018-03-30T23:19:52.304Z,7.10
2018-03-30T23:22:19.349Z,7.10
2018-03-30T23:24:46.419Z,7.00
2018-03-30T23:27:13.467Z,7.10
2018-03-30T23:29:41.323Z,7.10
2018-03-30T23:32:08.355Z,7.10
2018-03-30T23:34:35.384Z,7.00
2018-03-30T23:37:02.401Z,7.00
2018-03-30T23:39:29.470Z,7.00
2018-03-30T23:41:56.490Z,7.00
2018-03-30T23:44:24.348Z,6.90
2018-03-30T23:46:51.376Z,6.90
2018-03-30T23:49:19.324Z,6.80
2018-03-30T23:51:46.350Z,6.80
2018-03-30T23:54:13.396Z,6.80
2018-03-30T23:56:40.420Z,6.80
2018-03-30T23:59:07.444Z,6.90
